Time;durP1;ratioP1;P1;durP2;ratioP2;P2;SDS_P1;SDS_P2;PMS_P1;PMS_P2;Temp;Humidity;BMP_temperature;BMP_pressure;BME280_temperature;BME280_humidity;BME280_pressure;Samples;Min_cycle;Max_cycle;Signal;HPM_P1;HPM_P2
2022/01/15 00:01:34;;;;;;;25.40;15.53;;;6.00;99.90;;;;;;5028450;28;20441;-60
2022/01/15 00:04:00;;;;;;;25.03;15.20;;;6.00;99.90;;;;;;5029657;28;20532;-61
2022/01/15 00:06:26;;;;;;;26.20;15.37;;;6.00;99.90;;;;;;5036549;28;20253;-61
2022/01/15 00:08:51;;;;;;;25.30;14.17;;;6.00;99.90;;;;;;5034319;28;20194;-62
2022/01/15 00:11:17;;;;;;;26.00;15.60;;;6.00;99.90;;;;;;5029425;28;20235;-61
2022/01/15 00:13:45;;;;;;;24.83;15.23;;;5.90;99.90;;;;;;5028312;28;20202;-61
2022/01/15 00:16:15;;;;;;;28.08;14.85;;;5.90;99.90;;;;;;5034059;28;20626;-60
2022/01/15 00:18:47;;;;;;;29.25;15.85;;;5.90;99.90;;;;;;5028909;28;21055;-62
2022/01/15 00:21:14;;;;;;;27.80;16.45;;;5.90;99.90;;;;;;5043894;28;20186;-61
2022/01/15 00:23:41;;;;;;;27.23;15.15;;;5.90;99.90;;;;;;5045606;28;20198;-61
2022/01/15 00:26:07;;;;;;;27.13;14.73;;;6.00;99.90;;;;;;5027262;28;20270;-59
2022/01/15 00:28:32;;;;;;;47.77;27.17;;;6.00;99.90;;;;;;5029248;28;22388;-60
2022/01/15 00:30:58;;;;;;;30.20;16.90;;;6.00;99.90;;;;;;5028640;28;20528;-60
2022/01/15 00:33:24;;;;;;;23.17;15.93;;;5.90;99.90;;;;;;5034016;28;20220;-60
2022/01/15 00:35:50;;;;;;;26.83;16.10;;;6.00;99.90;;;;;;5031219;28;20182;-61
2022/01/15 00:38:15;;;;;;;23.37;15.00;;;5.90;99.90;;;;;;5043587;28;20189;-61
2022/01/15 00:40:41;;;;;;;27.60;16.50;;;5.90;99.90;;;;;;5034392;28;20654;-61
2022/01/15 00:43:07;;;;;;;25.40;15.13;;;5.90;99.90;;;;;;5021843;28;20187;-61
2022/01/15 00:45:33;;;;;;;26.05;16.40;;;5.90;99.90;;;;;;5027781;28;20202;-61
2022/01/15 00:47:59;;;;;;;28.23;15.65;;;5.90;99.90;;;;;;5027205;28;20573;-61
2022/01/15 00:50:25;;;;;;;24.33;14.60;;;5.90;99.90;;;;;;5032968;28;20222;-61
2022/01/15 00:52:51;;;;;;;29.47;15.90;;;5.90;99.90;;;;;;5027425;28;20201;-61
2022/01/15 00:55:21;;;;;;;31.07;16.53;;;5.80;99.90;;;;;;5027901;28;20937;-59
2022/01/15 00:57:47;;;;;;;27.92;15.60;;;5.90;99.90;;;;;;5029849;28;20218;-59
2022/01/15 01:00:17;;;;;;;27.70;16.13;;;5.80;99.90;;;;;;5038146;28;20206;-59
2022/01/15 01:02:44;;;;;;;27.17;16.15;;;5.80;99.90;;;;;;5047755;28;20194;-59
2022/01/15 01:05:10;;;;;;;26.10;15.75;;;5.80;99.90;;;;;;5036853;28;20221;-59
2022/01/15 01:07:36;;;;;;;22.60;14.00;;;5.80;99.90;;;;;;5031110;28;20222;-60
2022/01/15 01:20:56;;;;;;;27.58;16.23;;;5.70;99.90;;;;;;5030527;28;20251;-60
2022/01/15 01:23:22;;;;;;;27.13;15.73;;;5.70;99.90;;;;;;5040220;28;20570;-61
2022/01/15 01:25:51;;;;;;;29.57;16.90;;;5.70;99.90;;;;;;5027251;28;20186;-60
2022/01/15 01:30:59;;;;;;;26.88;15.77;;;5.70;99.90;;;;;;5033662;28;20354;-61
2022/01/15 01:36:12;;;;;;;27.50;17.03;;;5.70;99.90;;;;;;5036269;28;20189;-61
2022/01/15 01:38:47;;;;;;;24.90;15.20;;;5.60;99.90;;;;;;5031300;28;20193;-59
2022/01/15 01:41:17;;;;;;;26.92;15.65;;;5.70;99.90;;;;;;5032996;28;20977;-60
2022/01/15 01:43:50;;;;;;;26.17;15.75;;;5.70;99.90;;;;;;5031705;28;20187;-61
2022/01/15 01:48:52;;;;;;;25.75;15.93;;;5.80;99.90;;;;;;5029569;28;20556;-60
2022/01/15 01:51:31;;;;;;;21.00;14.18;;;5.70;99.90;;;;;;5034596;28;20734;-60
2022/01/15 01:53:59;;;;;;;28.88;15.98;;;5.70;99.90;;;;;;5040984;28;20182;-62
2022/01/15 01:56:25;;;;;;;25.17;14.75;;;5.70;99.90;;;;;;5036289;28;20713;-60
2022/01/15 01:58:51;;;;;;;22.13;14.18;;;5.70;99.90;;;;;;5031858;28;20270;-60
2022/01/15 02:01:17;;;;;;;23.60;13.97;;;5.70;99.90;;;;;;5032176;28;20266;-59
2022/01/15 02:03:42;;;;;;;25.00;15.60;;;5.80;99.90;;;;;;5028223;28;20190;-61
2022/01/15 02:06:08;;;;;;;27.00;16.53;;;5.70;99.90;;;;;;5033375;28;20437;-61
2022/01/15 02:08:36;;;;;;;23.77;14.50;;;5.80;99.90;;;;;;5035919;28;20233;-60
2022/01/15 02:11:04;;;;;;;24.60;13.15;;;5.80;99.90;;;;;;5040627;28;20538;-60
2022/01/15 02:13:30;;;;;;;24.60;15.40;;;5.60;99.90;;;;;;5040659;28;20180;-60
2022/01/15 02:15:57;;;;;;;25.65;15.23;;;5.70;99.90;;;;;;5034078;28;20185;-61
2022/01/15 02:18:24;;;;;;;22.92;13.70;;;5.70;99.90;;;;;;5036713;28;20198;-59
2022/01/15 02:23:41;;;;;;;24.23;14.57;;;5.70;99.90;;;;;;5033008;28;20186;-60
2022/01/15 02:26:09;;;;;;;26.15;15.15;;;5.80;99.90;;;;;;5031629;28;20187;-60
2022/01/15 02:28:39;;;;;;;24.92;14.35;;;5.80;99.90;;;;;;5030610;28;20692;-59
2022/01/15 02:31:07;;;;;;;22.58;14.45;;;5.70;99.90;;;;;;5031323;28;20229;-59
2022/01/15 02:33:34;;;;;;;23.67;14.60;;;5.70;99.90;;;;;;5030699;28;20246;-60
2022/01/15 02:36:04;;;;;;;26.83;14.45;;;5.70;99.90;;;;;;5041665;28;21043;-60
2022/01/15 02:38:29;;;;;;;25.10;13.57;;;5.80;99.90;;;;;;5032785;28;20229;-61
2022/01/15 02:40:55;;;;;;;24.40;13.57;;;5.80;99.90;;;;;;5029177;28;20186;-62
2022/01/15 02:43:29;;;;;;;20.40;13.37;;;5.80;99.90;;;;;;5038591;28;20631;-61
2022/01/15 02:45:56;;;;;;;22.88;13.65;;;5.80;99.90;;;;;;5042851;28;20167;-60
2022/01/15 02:48:25;;;;;;;22.85;13.75;;;5.70;99.90;;;;;;5028715;28;20210;-60
2022/01/15 02:50:51;;;;;;;24.20;14.23;;;5.70;99.90;;;;;;5043025;28;20222;-60
2022/01/15 02:53:17;;;;;;;22.17;13.45;;;5.70;99.90;;;;;;5042788;28;20182;-60
2022/01/15 02:55:52;;;;;;;21.57;12.90;;;5.70;99.90;;;;;;5044129;28;20189;-60
2022/01/15 02:58:20;;;;;;;19.67;12.57;;;5.70;99.90;;;;;;5021694;28;20951;-61
2022/01/15 03:00:47;;;;;;;19.95;12.77;;;5.60;99.90;;;;;;5030076;28;20193;-60
2022/01/15 03:03:12;;;;;;;19.02;12.35;;;5.70;99.90;;;;;;5031306;28;20789;-60
2022/01/15 03:05:38;;;;;;;26.00;12.70;;;5.60;99.90;;;;;;5029139;28;20223;-61
2022/01/15 03:08:04;;;;;;;24.63;12.70;;;5.60;99.90;;;;;;5039276;28;20202;-60
2022/01/15 03:10:29;;;;;;;20.90;14.07;;;5.60;99.90;;;;;;5042537;28;20198;-61
2022/01/15 03:12:57;;;;;;;24.30;13.60;;;5.60;99.90;;;;;;5040920;28;20895;-60
2022/01/15 03:15:22;;;;;;;21.60;13.35;;;5.50;99.90;;;;;;5035185;28;20633;-60
2022/01/15 03:17:49;;;;;;;19.60;11.50;;;5.60;99.90;;;;;;5039925;28;20182;-60
2022/01/15 03:20:17;;;;;;;17.67;11.50;;;5.60;99.90;;;;;;5047300;28;20194;-60
2022/01/15 03:22:44;;;;;;;21.42;12.73;;;5.50;99.90;;;;;;5029276;28;20268;-59
2022/01/15 03:25:10;;;;;;;19.08;12.70;;;5.60;99.90;;;;;;5030103;28;20254;-60
2022/01/15 03:27:36;;;;;;;20.48;11.25;;;5.60;99.90;;;;;;5028624;28;20541;-60
2022/01/15 03:30:07;;;;;;;19.33;10.90;;;5.60;99.90;;;;;;5029824;28;20193;-61
2022/01/15 03:32:32;;;;;;;18.90;10.48;;;5.50;99.90;;;;;;5029972;28;20464;-60
2022/01/15 03:34:58;;;;;;;16.07;10.17;;;5.60;99.90;;;;;;5028518;28;20243;-61
2022/01/15 03:37:24;;;;;;;16.47;10.40;;;5.50;99.90;;;;;;5029369;28;20233;-61
2022/01/15 03:39:50;;;;;;;16.60;10.20;;;5.40;99.90;;;;;;5030480;28;20660;-58
2022/01/15 03:42:15;;;;;;;17.70;11.00;;;5.50;99.90;;;;;;5031034;28;20189;-60
2022/01/15 03:44:43;;;;;;;17.93;10.53;;;5.40;99.90;;;;;;5029379;28;20206;-62
2022/01/15 03:47:09;;;;;;;18.27;11.13;;;5.40;99.90;;;;;;5030216;28;20186;-61
2022/01/15 03:49:36;;;;;;;18.30;10.30;;;5.40;99.90;;;;;;5029067;28;20254;-61
2022/01/15 03:52:02;;;;;;;17.42;11.13;;;5.40;99.90;;;;;;5033788;28;20211;-55
2022/01/15 03:54:27;;;;;;;22.73;11.35;;;5.30;99.90;;;;;;5038432;28;20187;-61
2022/01/15 03:56:53;;;;;;;21.13;11.07;;;5.30;99.90;;;;;;5034855;28;20897;-61
2022/01/15 03:59:19;;;;;;;21.53;10.50;;;5.30;99.90;;;;;;5035365;28;20191;-61
2022/01/15 04:01:44;;;;;;;18.50;10.33;;;5.30;99.90;;;;;;5036505;28;20587;-60
2022/01/15 04:04:10;;;;;;;21.10;11.23;;;5.30;99.90;;;;;;5040201;28;20441;-60
2022/01/15 04:06:35;;;;;;;15.33;10.23;;;5.30;99.90;;;;;;5037651;28;20171;-61
2022/01/15 04:09:01;;;;;;;20.60;10.30;;;5.30;99.90;;;;;;5027832;28;20242;-61
2022/01/15 04:11:27;;;;;;;16.23;10.13;;;5.20;99.90;;;;;;5028820;28;20183;-61
2022/01/15 04:13:52;;;;;;;19.10;11.10;;;5.30;99.90;;;;;;5028085;28;20660;-60
2022/01/15 04:16:18;;;;;;;16.60;10.37;;;5.20;99.90;;;;;;5034215;28;20266;-61
2022/01/15 04:18:43;;;;;;;23.20;9.50;;;5.30;99.90;;;;;;5027383;28;20194;-60
2022/01/15 04:21:10;;;;;;;14.83;9.37;;;5.20;99.90;;;;;;5028922;28;20183;-60
2022/01/15 04:23:36;;;;;;;18.83;10.55;;;5.30;99.90;;;;;;5028466;28;20187;-61
2022/01/15 04:26:03;;;;;;;14.18;9.02;;;5.20;99.90;;;;;;5028824;28;20194;-60
2022/01/15 04:28:31;;;;;;;14.93;9.25;;;5.20;99.90;;;;;;5026037;28;20226;-61
2022/01/15 04:31:04;;;;;;;12.68;8.75;;;5.20;99.90;;;;;;5028145;28;20194;-60
2022/01/15 04:33:31;;;;;;;16.70;8.43;;;5.20;99.90;;;;;;5028180;28;20190;-61
2022/01/15 04:35:56;;;;;;;11.68;7.72;;;5.20;99.90;;;;;;5029859;28;20171;-61
2022/01/15 04:38:22;;;;;;;15.37;8.73;;;5.10;99.90;;;;;;5027105;28;20198;-60
2022/01/15 04:40:48;;;;;;;14.07;8.20;;;5.10;99.90;;;;;;5029209;28;20556;-60
2022/01/15 04:43:13;;;;;;;13.67;7.50;;;5.10;99.90;;;;;;5027996;28;20183;-60
2022/01/15 04:45:39;;;;;;;11.13;6.80;;;5.10;99.90;;;;;;5028018;28;20202;-60
2022/01/15 04:48:04;;;;;;;10.37;6.53;;;5.10;99.90;;;;;;5025630;28;20564;-60
2022/01/15 04:50:30;;;;;;;19.10;7.97;;;5.00;99.90;;;;;;5027766;28;20655;-62
2022/01/15 04:52:55;;;;;;;15.07;7.73;;;5.00;99.90;;;;;;5026744;28;20187;-60
2022/01/15 04:55:21;;;;;;;15.10;7.70;;;5.00;99.90;;;;;;5028631;28;20191;-61
2022/01/15 04:57:46;;;;;;;9.97;6.63;;;4.90;99.90;;;;;;5027993;28;20194;-62
2022/01/15 05:00:16;;;;;;;12.43;6.70;;;4.90;99.90;;;;;;5027941;28;20249;-57
2022/01/15 05:02:42;;;;;;;15.30;6.78;;;4.90;99.90;;;;;;5028039;28;20186;-61
2022/01/15 05:05:08;;;;;;;14.32;6.90;;;4.80;99.90;;;;;;5027437;28;20183;-62
2022/01/15 05:07:34;;;;;;;9.70;6.53;;;4.80;99.90;;;;;;5030263;28;20569;-60
2022/01/15 05:09:59;;;;;;;15.03;6.67;;;4.80;99.90;;;;;;5032767;28;20183;-60
2022/01/15 05:12:31;;;;;;;15.40;6.90;;;4.80;99.90;;;;;;5042579;28;20667;-61
2022/01/15 05:14:57;;;;;;;16.25;7.13;;;4.70;99.90;;;;;;5026525;28;20183;-60
2022/01/15 05:17:23;;;;;;;12.47;6.73;;;4.70;99.90;;;;;;5026734;28;20196;-61
2022/01/15 05:19:48;;;;;;;11.40;6.60;;;4.60;99.90;;;;;;5030602;28;20242;-60
2022/01/15 05:22:14;;;;;;;10.47;6.17;;;4.60;99.90;;;;;;5038303;28;20878;-62
2022/01/15 05:24:40;;;;;;;14.10;5.87;;;4.50;99.90;;;;;;5031655;28;20191;-61
2022/01/15 05:27:06;;;;;;;12.50;6.10;;;4.60;99.90;;;;;;5029219;28;20672;-61
2022/01/15 05:29:31;;;;;;;10.50;6.03;;;4.50;99.90;;;;;;5027207;28;20187;-60
2022/01/15 05:31:57;;;;;;;20.73;6.70;;;4.50;99.90;;;;;;5029618;28;20207;-60
2022/01/15 05:34:22;;;;;;;15.00;6.37;;;4.40;99.90;;;;;;5027010;28;20193;-61
2022/01/15 05:36:48;;;;;;;16.60;5.73;;;4.40;99.90;;;;;;5028398;28;20205;-61
2022/01/15 05:39:14;;;;;;;14.40;6.43;;;4.40;99.90;;;;;;5027589;28;20606;-61
2022/01/15 05:41:39;;;;;;;13.40;6.40;;;4.30;99.90;;;;;;5028017;28;20201;-61
2022/01/15 05:44:05;;;;;;;12.33;7.17;;;4.30;99.90;;;;;;5026572;28;20445;-61
2022/01/15 05:46:33;;;;;;;13.00;6.73;;;4.20;99.90;;;;;;5030071;28;20649;-61
2022/01/15 05:49:00;;;;;;;13.98;6.85;;;4.20;99.90;;;;;;5039560;28;20272;-61
2022/01/15 05:51:29;;;;;;;15.13;7.15;;;4.20;99.90;;;;;;5037380;28;20182;-61
2022/01/15 05:53:55;;;;;;;14.38;6.95;;;4.20;99.90;;;;;;5039005;28;20522;-61
2022/01/15 05:56:21;;;;;;;12.73;6.22;;;4.20;99.90;;;;;;5039945;28;20190;-61
2022/01/15 05:58:47;;;;;;;12.70;6.83;;;4.20;99.90;;;;;;5024251;28;20191;-62
2022/01/15 06:01:12;;;;;;;14.70;7.33;;;4.20;99.90;;;;;;5026459;28;20519;-61
2022/01/15 06:03:38;;;;;;;15.97;6.53;;;4.30;99.90;;;;;;5027804;28;20178;-61
2022/01/15 06:06:03;;;;;;;12.40;6.17;;;4.30;99.90;;;;;;5027815;28;20179;-61
2022/01/15 06:08:29;;;;;;;10.97;6.67;;;4.40;99.90;;;;;;5028090;28;20222;-61
2022/01/15 06:10:54;;;;;;;16.67;6.80;;;4.40;99.90;;;;;;5028023;28;20183;-61
2022/01/15 06:13:20;;;;;;;16.13;7.20;;;4.40;99.90;;;;;;5029791;28;20989;-61
2022/01/15 06:15:45;;;;;;;10.83;6.43;;;4.40;99.90;;;;;;5031684;28;20184;-61
2022/01/15 06:18:11;;;;;;;11.30;7.17;;;4.40;99.90;;;;;;5028688;28;20199;-61
2022/01/15 06:20:36;;;;;;;14.50;6.73;;;4.30;99.90;;;;;;5032400;28;20656;-61
2022/01/15 06:23:02;;;;;;;13.80;6.13;;;4.30;99.90;;;;;;5030771;28;20774;-61
2022/01/15 06:25:28;;;;;;;12.90;6.37;;;4.30;99.90;;;;;;5030628;28;20233;-61
2022/01/15 06:27:53;;;;;;;10.40;5.87;;;4.20;99.90;;;;;;5029617;28;20206;-61
2022/01/15 06:30:19;;;;;;;12.77;6.63;;;4.20;99.90;;;;;;5031814;28;20183;-61
2022/01/15 06:32:44;;;;;;;13.07;6.80;;;4.10;99.90;;;;;;5031319;28;20529;-61
2022/01/15 06:35:12;;;;;;;13.60;6.33;;;4.10;99.90;;;;;;5029095;28;20269;-62
2022/01/15 06:37:38;;;;;;;16.95;7.57;;;4.20;99.90;;;;;;5029587;28;20190;-61
2022/01/15 06:40:05;;;;;;;15.10;6.90;;;4.20;99.90;;;;;;5030975;28;20187;-61
2022/01/15 06:42:30;;;;;;;19.45;7.45;;;4.20;99.90;;;;;;5030773;28;20394;-61
2022/01/15 06:44:56;;;;;;;15.97;6.60;;;4.20;99.90;;;;;;5030162;28;20277;-61
2022/01/15 06:47:22;;;;;;;15.47;7.40;;;4.20;99.90;;;;;;5032150;28;20218;-61
2022/01/15 06:49:47;;;;;;;14.13;7.53;;;4.10;99.90;;;;;;5031836;28;20226;-61
2022/01/15 06:52:13;;;;;;;13.90;7.40;;;4.10;99.90;;;;;;5031129;28;20808;-61
2022/01/15 06:54:39;;;;;;;19.17;8.40;;;4.10;99.90;;;;;;5030911;28;20191;-61
2022/01/15 06:57:04;;;;;;;12.07;7.07;;;4.10;99.90;;;;;;5030383;28;20185;-61
2022/01/15 06:59:30;;;;;;;15.30;7.43;;;4.10;99.90;;;;;;5028972;28;20638;-64
2022/01/15 07:01:55;;;;;;;12.50;7.83;;;4.10;99.90;;;;;;5041437;28;20187;-62
2022/01/15 07:04:21;;;;;;;15.43;8.50;;;4.10;99.90;;;;;;5030123;28;20183;-60
2022/01/15 07:06:46;;;;;;;14.30;8.40;;;4.00;99.90;;;;;;5037848;28;20194;-61
2022/01/15 07:09:12;;;;;;;19.80;8.83;;;4.10;99.90;;;;;;5036720;28;20214;-61
2022/01/15 07:11:37;;;;;;;15.60;8.10;;;4.10;99.90;;;;;;5034035;28;20213;-60
2022/01/15 07:14:03;;;;;;;18.30;9.07;;;4.10;99.90;;;;;;5028287;28;20191;-63
2022/01/15 07:16:28;;;;;;;17.50;9.10;;;4.10;99.90;;;;;;5031829;28;20179;-61
2022/01/15 07:18:54;;;;;;;21.73;9.77;;;4.10;99.90;;;;;;5034798;28;20554;-61
2022/01/15 07:21:20;;;;;;;20.13;9.33;;;4.10;99.90;;;;;;5032370;28;20186;-61
2022/01/15 07:23:45;;;;;;;16.10;9.20;;;4.10;99.90;;;;;;5022647;28;20274;-60
2022/01/15 07:26:11;;;;;;;16.90;9.70;;;4.10;99.90;;;;;;5028452;28;20190;-60
2022/01/15 07:28:37;;;;;;;18.90;9.60;;;4.20;99.90;;;;;;5024459;28;20218;-60
2022/01/15 07:31:03;;;;;;;21.70;8.97;;;4.10;99.90;;;;;;5035606;28;20544;-60
2022/01/15 07:33:28;;;;;;;17.77;9.77;;;4.20;99.90;;;;;;5033626;28;20437;-60
2022/01/15 07:35:55;;;;;;;15.30;9.30;;;4.20;99.90;;;;;;5027811;28;20496;-59
2022/01/15 07:38:21;;;;;;;16.42;8.52;;;4.30;99.90;;;;;;5018941;28;20266;-60
2022/01/15 07:40:47;;;;;;;16.00;8.30;;;4.30;99.90;;;;;;5022446;28;20771;-60
2022/01/15 07:43:13;;;;;;;18.92;9.90;;;4.30;99.90;;;;;;5027262;28;20437;-60
2022/01/15 07:45:39;;;;;;;23.65;9.68;;;4.30;99.90;;;;;;5022560;28;21077;-60
2022/01/15 07:48:05;;;;;;;19.67;9.33;;;4.30;99.90;;;;;;5021927;28;20199;-59
2022/01/15 07:50:30;;;;;;;18.87;9.80;;;4.30;99.90;;;;;;5023114;28;20739;-58
2022/01/15 07:52:58;;;;;;;23.00;10.23;;;4.30;99.90;;;;;;5022480;28;20233;-59
2022/01/15 07:55:24;;;;;;;21.20;9.98;;;4.30;99.90;;;;;;5026768;28;20183;-60
2022/01/15 07:57:50;;;;;;;20.27;9.82;;;4.40;99.90;;;;;;5025558;28;20209;-60
2022/01/15 08:00:17;;;;;;;16.52;10.63;;;4.50;99.90;;;;;;5022893;28;20715;-60
2022/01/15 08:02:42;;;;;;;19.20;10.60;;;4.50;99.90;;;;;;5023448;28;20225;-60
2022/01/15 08:05:09;;;;;;;19.93;9.70;;;4.60;99.90;;;;;;5023393;28;20210;-60
2022/01/15 08:07:35;;;;;;;21.30;10.80;;;4.70;99.90;;;;;;5023300;28;20203;-60
2022/01/15 08:10:03;;;;;;;21.07;10.10;;;4.60;99.90;;;;;;5035671;28;21088;-60
2022/01/15 08:12:29;;;;;;;20.90;9.70;;;4.60;99.90;;;;;;5026648;28;20923;-60
2022/01/15 08:14:55;;;;;;;17.83;10.00;;;4.70;99.90;;;;;;5021063;28;20274;-59
2022/01/15 08:17:20;;;;;;;18.90;10.70;;;4.80;99.90;;;;;;5023023;28;20325;-60
2022/01/15 08:19:46;;;;;;;16.17;9.70;;;4.80;99.90;;;;;;5025051;28;20449;-60
2022/01/15 08:22:12;;;;;;;23.87;11.00;;;4.80;99.90;;;;;;5027461;28;20199;-60
2022/01/15 08:24:37;;;;;;;17.33;9.43;;;4.80;99.90;;;;;;5026965;28;20191;-60
2022/01/15 08:27:03;;;;;;;16.27;10.60;;;4.90;99.90;;;;;;5036695;28;20912;-60
2022/01/15 08:29:28;;;;;;;17.70;10.10;;;5.00;99.90;;;;;;5048790;28;20186;-61
2022/01/15 08:31:54;;;;;;;18.97;11.20;;;5.00;99.90;;;;;;5021497;28;20171;-60
2022/01/15 08:34:19;;;;;;;23.63;10.30;;;5.10;99.90;;;;;;5034685;28;20174;-60
2022/01/15 08:36:45;;;;;;;20.80;11.50;;;5.10;99.90;;;;;;5028940;28;20650;-61
2022/01/15 08:39:11;;;;;;;18.93;10.67;;;5.10;99.90;;;;;;5026860;28;20554;-60
2022/01/15 08:41:37;;;;;;;20.33;11.10;;;5.10;99.90;;;;;;5046356;28;20204;-60
2022/01/15 08:44:03;;;;;;;23.25;10.52;;;5.10;99.90;;;;;;5034773;28;20733;-61
2022/01/15 08:46:28;;;;;;;21.15;10.73;;;5.20;99.90;;;;;;5028014;28;20175;-62
2022/01/15 08:48:54;;;;;;;21.43;10.37;;;5.20;99.90;;;;;;5029909;28;20242;-61
2022/01/15 08:51:20;;;;;;;19.37;9.40;;;5.20;99.90;;;;;;5023101;28;20179;-62
2022/01/15 08:53:45;;;;;;;19.77;9.70;;;5.30;99.90;;;;;;5046507;28;20215;-61
2022/01/15 08:56:11;;;;;;;13.87;7.70;;;5.50;99.90;;;;;;5049432;28;20245;-61
2022/01/15 08:58:37;;;;;;;17.47;8.63;;;5.60;99.90;;;;;;5049104;28;20186;-61
2022/01/15 09:01:04;;;;;;;20.30;8.07;;;5.60;99.90;;;;;;5041194;28;20197;-61
2022/01/15 09:03:35;;;;;;;15.45;7.45;;;5.80;99.90;;;;;;5033365;28;20186;-62
2022/01/15 09:06:00;;;;;;;16.80;7.85;;;5.70;99.90;;;;;;5035224;28;20641;-61
2022/01/15 09:08:27;;;;;;;17.43;6.87;;;5.80;99.90;;;;;;5049001;28;20204;-62
2022/01/15 09:10:54;;;;;;;19.15;11.77;;;6.00;99.90;;;;;;5032767;28;20171;-61
2022/01/15 09:13:19;;;;;;;13.07;7.50;;;6.10;99.90;;;;;;5028274;28;20617;-61
2022/01/15 09:15:45;;;;;;;16.67;6.80;;;6.20;99.90;;;;;;5043169;28;20265;-60
2022/01/15 09:18:11;;;;;;;15.40;6.67;;;6.20;99.90;;;;;;5048099;28;20206;-62
2022/01/15 09:20:36;;;;;;;10.17;6.53;;;6.30;99.90;;;;;;5028248;28;20201;-61
2022/01/15 09:23:02;;;;;;;15.67;6.50;;;6.30;99.90;;;;;;5049078;28;20197;-61
2022/01/15 09:25:28;;;;;;;12.48;5.63;;;6.30;99.90;;;;;;5032722;28;20194;-62
2022/01/15 09:30:39;;;;;;;12.68;5.60;;;6.30;99.90;;;;;;5042390;28;20228;-61
2022/01/15 09:33:06;;;;;;;13.97;5.37;;;6.40;99.90;;;;;;5045273;28;20778;-62
2022/01/15 09:35:32;;;;;;;18.08;5.20;;;6.40;99.90;;;;;;5042159;28;20175;-62
2022/01/15 09:37:58;;;;;;;16.97;5.30;;;6.50;99.90;;;;;;5028693;28;20191;-61
2022/01/15 09:40:27;;;;;;;12.20;5.40;;;6.60;99.90;;;;;;5028848;28;20467;-62
2022/01/15 09:42:53;;;;;;;11.53;4.97;;;6.60;99.90;;;;;;5025229;28;20442;-61
2022/01/15 09:45:21;;;;;;;16.02;4.55;;;6.50;99.90;;;;;;5022548;28;20453;-63
2022/01/15 09:47:55;;;;;;;15.30;5.22;;;6.60;99.90;;;;;;5032664;28;20205;-62
2022/01/15 09:50:22;;;;;;;8.70;3.80;;;6.70;99.90;;;;;;5027104;28;20392;-62
2022/01/15 09:52:47;;;;;;;17.25;5.13;;;6.90;99.90;;;;;;5030942;28;20441;-61
2022/01/15 09:55:14;;;;;;;10.20;4.73;;;7.00;99.90;;;;;;5019467;28;20175;-60
2022/01/15 09:57:41;;;;;;;18.33;4.80;;;7.20;99.90;;;;;;5025760;28;20198;-61
2022/01/15 10:00:11;;;;;;;10.87;4.43;;;7.40;99.90;;;;;;5028154;28;20436;-60
2022/01/15 10:02:40;;;;;;;13.37;5.10;;;7.50;99.90;;;;;;5022359;28;20441;-60
2022/01/15 10:05:06;;;;;;;13.37;5.33;;;7.50;99.90;;;;;;5013411;28;20450;-61
2022/01/15 10:07:32;;;;;;;16.50;5.07;;;7.50;99.90;;;;;;5025492;28;20476;-61
2022/01/15 10:10:14;;;;;;;17.03;4.73;;;7.30;99.90;;;;;;5024561;28;20433;-61
2022/01/15 10:12:42;;;;;;;8.87;3.70;;;7.30;99.90;;;;;;5035266;28;20183;-61
2022/01/15 10:15:08;;;;;;;12.03;5.90;;;7.20;99.90;;;;;;5034470;28;20480;-60
2022/01/15 10:17:38;;;;;;;14.03;5.33;;;7.30;99.90;;;;;;5028078;28;20445;-61
2022/01/15 10:20:12;;;;;;;10.53;4.57;;;7.30;99.90;;;;;;5031645;28;20443;-60
2022/01/15 10:22:40;;;;;;;11.50;4.20;;;7.40;99.90;;;;;;5029155;28;20433;-61
2022/01/15 10:25:15;;;;;;;13.57;4.70;;;7.10;99.90;;;;;;5021963;28;20464;-61
2022/01/15 10:27:43;;;;;;;6.27;4.03;;;7.10;99.90;;;;;;5019174;28;20317;-62
2022/01/15 10:30:27;;;;;;;15.67;6.40;;;7.20;99.90;;;;;;5026851;28;20456;-61
2022/01/15 10:33:02;;;;;;;19.90;5.13;;;7.50;99.90;;;;;;5030444;28;20428;-61
2022/01/15 10:35:39;;;;;;;12.33;3.90;;;7.60;99.90;;;;;;5025559;28;20456;-60
2022/01/15 10:38:08;;;;;;;13.73;5.07;;;7.60;99.90;;;;;;5028033;28;20435;-59
2022/01/15 10:40:41;;;;;;;9.00;4.10;;;7.70;99.90;;;;;;5032494;28;20429;-59
2022/01/15 10:43:08;;;;;;;10.83;4.47;;;7.80;99.90;;;;;;5027174;28;22409;-61
2022/01/15 10:45:35;;;;;;;10.80;4.13;;;7.80;99.90;;;;;;5024507;28;20471;-60
2022/01/15 10:48:04;;;;;;;10.80;5.50;;;7.80;99.90;;;;;;5034501;28;20468;-61
2022/01/15 10:50:35;;;;;;;13.63;4.57;;;7.70;99.90;;;;;;5021781;28;20476;-61
2022/01/15 10:53:10;;;;;;;10.93;3.40;;;7.80;99.90;;;;;;5024009;28;20445;-60
2022/01/15 10:55:38;;;;;;;7.90;4.23;;;7.80;99.60;;;;;;5025396;28;20449;-62
2022/01/15 10:58:11;;;;;;;11.53;3.73;;;7.70;98.20;;;;;;5024868;28;20421;-62
2022/01/15 11:00:37;;;;;;;10.70;4.37;;;7.60;97.60;;;;;;5021033;28;20977;-61
2022/01/15 11:03:08;;;;;;;9.20;3.57;;;7.50;98.70;;;;;;5023502;28;20448;-55
2022/01/15 11:05:35;;;;;;;7.80;3.50;;;7.40;99.90;;;;;;5022570;28;20176;-51
2022/01/15 11:08:36;;;;;;;8.67;4.20;;;7.40;99.90;;;;;;5024471;28;20546;-55
2022/01/15 11:11:05;;;;;;;6.20;3.53;;;7.30;99.90;;;;;;5018655;28;20441;-56
2022/01/15 11:13:36;;;;;;;11.80;4.25;;;7.30;99.90;;;;;;5028948;28;20495;-55
2022/01/15 11:16:16;;;;;;;10.00;3.90;;;7.40;99.90;;;;;;5040380;28;20269;-57
2022/01/15 11:18:44;;;;;;;13.90;3.87;;;7.30;99.90;;;;;;5028324;28;20441;-55
2022/01/15 11:21:15;;;;;;;8.53;4.30;;;7.40;99.80;;;;;;5028107;28;20458;-55
2022/01/15 11:23:43;;;;;;;7.80;3.80;;;7.40;99.80;;;;;;5033204;28;20421;-56
2022/01/15 11:26:11;;;;;;;7.43;3.70;;;7.40;99.50;;;;;;5039025;28;20887;-55
2022/01/15 11:28:37;;;;;;;9.87;3.13;;;7.40;98.60;;;;;;5032226;28;20471;-53
2022/01/15 11:31:12;;;;;;;8.87;3.40;;;7.30;98.20;;;;;;5046050;28;20495;-55
2022/01/15 11:33:47;;;;;;;8.60;4.00;;;7.20;98.50;;;;;;5029713;28;20435;-56
2022/01/15 11:36:40;;;;;;;8.05;3.40;;;7.10;98.30;;;;;;5035044;28;20919;-56
2022/01/15 11:39:07;;;;;;;14.47;4.10;;;7.00;98.10;;;;;;5030927;28;20892;-54
2022/01/15 11:41:34;;;;;;;11.27;4.25;;;7.00;98.50;;;;;;5042953;28;20528;-55
2022/01/15 11:44:02;;;;;;;10.43;3.75;;;6.90;98.30;;;;;;5027642;28;20237;-54
2022/01/15 11:46:29;;;;;;;11.07;4.30;;;6.90;98.50;;;;;;5023087;28;20615;-56
2022/01/15 11:49:28;;;;;;;8.18;3.97;;;7.00;98.90;;;;;;5028206;28;20508;-54
2022/01/15 11:51:57;;;;;;;11.77;3.67;;;6.90;97.80;;;;;;5030336;28;20237;-55
2022/01/15 11:54:23;;;;;;;7.20;3.83;;;6.90;99.40;;;;;;5026870;28;20414;-55
2022/01/15 11:56:49;;;;;;;11.03;4.60;;;6.90;98.00;;;;;;5028192;28;20187;-53
2022/01/15 11:59:23;;;;;;;7.17;3.93;;;6.80;97.90;;;;;;5021417;28;20434;-56
2022/01/15 12:01:50;;;;;;;15.73;8.43;;;6.80;98.70;;;;;;5028254;28;20174;-55
2022/01/15 12:04:24;;;;;;;9.47;4.10;;;6.80;98.70;;;;;;5024645;28;20437;-57
2022/01/15 12:07:05;;;;;;;9.17;4.40;;;6.90;99.50;;;;;;5025733;28;20432;-56
2022/01/15 12:09:39;;;;;;;9.47;4.87;;;7.00;99.00;;;;;;5029673;28;20473;-55
2022/01/15 12:12:21;;;;;;;8.90;3.90;;;7.10;99.20;;;;;;5023637;28;20475;-55
2022/01/15 12:14:58;;;;;;;9.35;4.43;;;7.00;98.90;;;;;;5026604;28;20942;-54
2022/01/15 12:17:36;;;;;;;12.93;6.17;;;7.00;99.90;;;;;;5025695;28;20657;-51
2022/01/15 12:20:18;;;;;;;12.53;4.30;;;7.20;98.50;;;;;;5022532;28;20481;-58
2022/01/15 12:22:52;;;;;;;8.80;4.40;;;7.20;97.30;;;;;;5025508;28;20421;-58
2022/01/15 12:25:18;;;;;;;10.10;4.43;;;7.20;96.70;;;;;;5028725;28;20432;-56
2022/01/15 12:27:46;;;;;;;9.53;3.40;;;7.20;96.50;;;;;;5040946;28;20456;-55
2022/01/15 12:30:14;;;;;;;7.93;3.63;;;7.10;96.10;;;;;;5027923;28;20194;-55
2022/01/15 12:32:42;;;;;;;11.03;4.27;;;7.00;97.10;;;;;;5039958;28;20436;-56
2022/01/15 12:35:21;;;;;;;7.43;3.40;;;6.90;97.00;;;;;;5026809;28;20514;-56
2022/01/15 12:38:08;;;;;;;12.70;3.90;;;7.00;98.60;;;;;;5024410;28;20171;-56
2022/01/15 12:40:46;;;;;;;13.57;4.68;;;7.10;97.80;;;;;;5025661;28;21154;-56
2022/01/15 12:43:19;;;;;;;11.63;3.97;;;7.20;97.40;;;;;;5028598;28;20872;-55
2022/01/15 12:45:46;;;;;;;13.13;4.40;;;7.30;97.70;;;;;;5022821;28;20563;-57
2022/01/15 12:48:20;;;;;;;9.73;4.07;;;7.50;96.20;;;;;;5026850;28;20465;-56
2022/01/15 12:50:51;;;;;;;12.70;4.60;;;7.50;95.20;;;;;;5017639;28;20453;-55
2022/01/15 12:53:18;;;;;;;6.93;3.90;;;7.50;95.50;;;;;;5028138;28;20412;-57
2022/01/15 12:55:44;;;;;;;10.13;5.17;;;7.50;96.20;;;;;;5025723;28;21243;-57
2022/01/15 12:58:14;;;;;;;7.00;3.60;;;7.60;96.60;;;;;;5027605;28;21010;-54
2022/01/15 13:00:39;;;;;;;13.40;4.17;;;7.70;96.60;;;;;;5026789;28;20526;-53
2022/01/15 13:03:07;;;;;;;7.40;3.47;;;7.80;95.10;;;;;;5029061;28;20402;-55
2022/01/15 13:05:37;;;;;;;11.30;5.17;;;7.80;94.00;;;;;;5029701;28;20587;-58
2022/01/15 13:08:05;;;;;;;9.70;4.40;;;7.70;95.00;;;;;;5035222;28;20486;-57
2022/01/15 13:10:34;;;;;;;8.83;3.93;;;7.70;94.30;;;;;;5026227;28;20492;-59